Aeroporto :
LOGIN :

Iscrizione | Disclaimer

   EN    FR    IT 

 










Sommario :    VFR   VFR Marginale   IFR   IFR Intensivo   IFR Molto Intensivo
Visibilità : 
Base nubi : 
>= 8 km
>= 3000ft
5 / 8 km
1000 / 3000 ft
1500m / 5 km
500 / 1000 ft
800 / 1500m
200 / 500 ft
< 800m
< 200 ft
Simboli :   Temporali  Nebbia  Neve Forte  Precipitazioni Forti  Vento > 20 kt
SIGMETs :   Varie  Temporali  Ghiacco  Turbolenza  Onda orograficha  Ceneri Vulcaniche







- Altitudine del aeroporto : 614 ft
- Codice IATA : CRL


EBCI - Charleroi

ULTIMO METAR :
  • 250120Z 32003KT 290V360 CAVOK 11/07 Q1017 NOSIG

METARs OBSOLETI :
  • 250050Z 31003KT 270V350 CAVOK 10/07 Q1017 NOSIG
  • 250020Z 31003KT CAVOK 11/06 Q1017 NOSIG
  • 242350Z 32003KT 280V340 CAVOK 11/06 Q1017 NOSIG
  • 242320Z VRB02KT CAVOK 12/05 Q1018 NOSIG
  • 242250Z 01003KT CAVOK 12/06 Q1018 NOSIG

TAF TAF EBCI
Valido dal 25 a 00 ore il 26 a 06 ore UTC


242300Z 2500/2606 VRB03KT CAVOK
TEMPO 2509/2516 SHRA
PROB40
TEMPO 2511/2515 3000 SHRA TSRA BKN012 SCT030CB
PROB30
TEMPO 2604/2606 4500 BR BKN005
BECMG 2605/2606 23010KT
Nessun NOTAM noto per questo aeroporto.



MetMap, La meteo Aeronautica in un colpo d'occhio ! - Copyright ORBIFLY Dicembre 2007 - Disclaimer

ORBIFLY MET'MAP TEAM :

Programmazione e sviluppo : Alexandra Zaïnal
Concezione e sviluppo : Baudouin d'Aumeries
Co-Programmazione e sviluppo : Marc-Olivier Méhu
Supporto tecnico e logistico : Manuel Goepfert
Aiuto per la traduzione : Arnaldo La Scala

Contatto : metmap@orbifly.com




FONTI E CREDITI :

   NOAA